Time;durP1;ratioP1;P1;durP2;ratioP2;P2;SDS_P1;SDS_P2;PMS_P1;PMS_P2;Temp;Humidity;BMP_temperature;BMP_pressure;BME280_temperature;BME280_humidity;BME280_pressure;Samples;Min_cycle;Max_cycle;Signal;HPM_P1;HPM_P2
2023/06/10 00:01:46;;;;;;;6.67;5.97;;;;;;;19.41;98.31;94466.91;5054152;28;20957;-78
2023/06/10 00:04:13;;;;;;;6.57;5.97;;;;;;;19.39;98.54;94467.09;5019349;28;20453;-79
2023/06/10 00:06:40;;;;;;;8.13;6.90;;;;;;;19.46;99.07;94473.28;5053874;28;20496;-78
2023/06/10 00:09:10;;;;;;;15.37;7.83;;;;;;;19.45;98.54;94470.81;5053922;28;20494;-80
2023/06/10 00:11:36;;;;;;;7.30;6.60;;;;;;;19.39;98.52;94468.94;5053672;28;20846;-78
2023/06/10 00:14:03;;;;;;;7.03;6.30;;;;;;;19.39;98.56;94476.94;5053538;28;20848;-79
2023/06/10 00:16:30;;;;;;;7.73;6.93;;;;;;;19.35;99.80;94471.16;5053615;28;20444;-78
2023/06/10 00:19:00;;;;;;;7.37;6.73;;;;;;;19.38;100.00;94475.28;5053689;28;20489;-79
2023/06/10 00:21:27;;;;;;;6.80;6.17;;;;;;;19.38;100.00;94469.97;5053751;28;20534;-78
2023/06/10 00:23:55;;;;;;;13.50;7.00;;;;;;;19.41;99.90;94472.22;5053906;28;20504;-78
2023/06/10 00:26:23;;;;;;;8.13;7.00;;;;;;;19.44;99.23;94470.00;5053422;28;20978;-78
2023/06/10 00:28:50;;;;;;;7.57;6.87;;;;;;;19.44;99.61;94471.84;5053652;28;20989;-78
2023/06/10 00:31:17;;;;;;;7.63;6.70;;;;;;;19.42;98.65;94471.22;5053028;28;20498;-79
2023/06/10 00:33:44;;;;;;;9.23;7.30;;;;;;;19.41;98.65;94475.72;5018180;28;20517;-78
2023/06/10 00:36:10;;;;;;;7.10;6.50;;;;;;;19.45;98.67;94478.81;5053455;28;20567;-82
2023/06/10 00:38:37;;;;;;;10.13;6.37;;;;;;;19.48;98.31;94486.41;5053175;28;20538;-79
2023/06/10 00:41:04;;;;;;;8.23;6.83;;;;;;;19.48;97.48;94486.41;5053134;28;20452;-79
2023/06/10 00:43:32;;;;;;;8.30;7.33;;;;;;;19.49;97.53;94483.53;5017927;28;20489;-79
2023/06/10 00:46:00;;;;;;;8.03;6.40;;;;;;;19.48;97.74;94486.41;5052878;28;20929;-79
2023/06/10 00:48:27;;;;;;;8.77;6.70;;;;;;;19.43;97.75;94478.19;5053216;28;20504;-79
2023/06/10 00:50:54;;;;;;;7.20;6.17;;;;;;;19.38;98.44;94480.59;5053081;28;20500;-78
2023/06/10 00:53:23;;;;;;;8.47;6.77;;;;;;;19.35;98.73;94480.97;5053040;28;20473;-78
2023/06/10 00:55:50;;;;;;;7.80;7.00;;;;;;;19.31;99.26;94483.19;5018188;28;20508;-78
2023/06/10 00:58:17;;;;;;;8.57;6.20;;;;;;;19.30;99.53;94486.06;5052885;28;20497;-80
2023/06/10 01:00:46;;;;;;;8.13;7.20;;;;;;;19.27;99.49;94483.78;5056910;28;20565;-78
2023/06/10 01:03:13;;;;;;;9.73;6.13;;;;;;;19.24;99.34;94484.16;5059257;28;20970;-79
2023/06/10 01:05:41;;;;;;;7.10;6.43;;;;;;;19.20;99.83;94481.06;5059639;28;20443;-79
2023/06/10 01:08:15;;;;;;;9.40;6.60;;;;;;;19.17;99.92;94490.25;5059523;28;20778;-78
2023/06/10 01:10:48;;;;;;;11.23;6.67;;;;;;;19.18;100.00;94481.28;5059366;28;20990;-78
2023/06/10 01:13:16;;;;;;;7.77;6.27;;;;;;;19.14;100.00;94480.00;5059672;28;20510;-78
2023/06/10 01:15:43;;;;;;;11.37;6.37;;;;;;;18.96;100.00;94470.84;5059615;28;20445;-78
2023/06/10 01:18:14;;;;;;;7.50;6.80;;;;;;;18.89;100.00;94478.78;5059241;28;20446;-78
2023/06/10 01:20:46;;;;;;;10.10;6.70;;;;;;;18.90;100.00;94476.94;5059579;28;20497;-78
2023/06/10 01:23:15;;;;;;;9.37;6.77;;;;;;;18.91;100.00;94478.56;5059403;28;20442;-79
2023/06/10 01:25:47;;;;;;;13.27;6.90;;;;;;;18.95;100.00;94485.97;5024501;28;20441;-78
2023/06/10 01:28:17;;;;;;;8.27;7.23;;;;;;;18.97;100.00;94489.25;5059137;28;20449;-78
2023/06/10 01:30:53;;;;;;;7.27;6.57;;;;;;;18.96;100.00;94487.63;5059022;28;20958;-78
2023/06/10 01:33:26;;;;;;;11.13;6.80;;;;;;;18.92;100.00;94482.88;5059138;28;20850;-78
2023/06/10 01:35:55;;;;;;;6.90;6.30;;;;;;;18.90;100.00;94482.25;5059308;28;20846;-78
2023/06/10 01:38:26;;;;;;;7.23;6.53;;;;;;;18.95;100.00;94480.66;5059336;28;20450;-79
2023/06/10 01:40:54;;;;;;;7.33;6.73;;;;;;;18.99;100.00;94487.25;5059040;28;20483;-78
2023/06/10 01:43:21;;;;;;;7.87;7.17;;;;;;;18.95;100.00;94483.31;5059467;28;20482;-78
2023/06/10 01:45:48;;;;;;;9.50;7.30;;;;;;;18.94;100.00;94478.19;5059435;28;20454;-79
2023/06/10 01:48:15;;;;;;;8.37;7.50;;;;;;;18.93;100.00;94482.69;5059327;28;20536;-79
2023/06/10 01:50:43;;;;;;;11.80;7.30;;;;;;;18.92;100.00;94482.88;5059032;28;20459;-79
2023/06/10 01:53:10;;;;;;;9.43;8.10;;;;;;;18.94;100.00;94476.34;5058979;28;20444;-79
2023/06/10 01:55:40;;;;;;;7.97;7.27;;;;;;;18.96;100.00;94481.47;5059430;28;20457;-79
2023/06/10 01:58:06;;;;;;;8.30;7.53;;;;;;;19.00;100.00;94472.09;5059266;28;20495;-80
2023/06/10 02:00:33;;;;;;;8.77;7.07;;;;;;;19.00;100.00;94477.41;5058852;28;20547;-79
2023/06/10 02:03:00;;;;;;;10.67;7.37;;;;;;;18.99;100.00;94481.91;5059115;28;20458;-79
2023/06/10 02:05:26;;;;;;;8.07;7.13;;;;;;;19.01;100.00;94469.25;5058766;28;20461;-79
2023/06/10 02:07:53;;;;;;;8.73;7.93;;;;;;;19.04;100.00;94468.03;5059198;28;20499;-79
2023/06/10 02:10:20;;;;;;;19.57;8.20;;;;;;;19.02;100.00;94462.91;5059092;28;20452;-79
2023/06/10 02:12:48;;;;;;;10.17;8.27;;;;;;;19.04;100.00;94476.03;5036366;28;20820;-79
2023/06/10 02:15:15;;;;;;;10.47;8.63;;;;;;;19.03;100.00;94472.53;5055804;28;20443;-79
2023/06/10 02:17:42;;;;;;;9.17;8.30;;;;;;;19.01;100.00;94474.56;5036875;28;20445;-79
2023/06/10 02:20:10;;;;;;;9.17;8.00;;;;;;;18.99;100.00;94465.97;5055695;28;20542;-79
2023/06/10 02:22:38;;;;;;;12.30;8.73;;;;;;;18.98;100.00;94456.34;5055854;28;20439;-79
2023/06/10 02:25:06;;;;;;;9.37;8.57;;;;;;;18.96;100.00;94463.69;5055620;28;20937;-80
2023/06/10 02:27:32;;;;;;;10.20;9.20;;;;;;;18.96;100.00;94458.38;5055483;28;21003;-78
2023/06/10 02:30:01;;;;;;;10.03;9.03;;;;;;;18.95;100.00;94458.56;5020292;28;20459;-79
2023/06/10 02:32:28;;;;;;;15.77;8.60;;;;;;;18.90;100.00;94453.81;5055742;28;20459;-79
2023/06/10 02:34:55;;;;;;;10.93;9.67;;;;;;;18.86;100.00;94448.06;5055274;28;20457;-79
2023/06/10 02:37:22;;;;;;;12.23;9.60;;;;;;;18.84;100.00;94446.63;5055420;28;20920;-79
2023/06/10 02:39:48;;;;;;;17.53;9.40;;;;;;;18.77;100.00;94445.72;5055368;28;20885;-79
2023/06/10 02:42:15;;;;;;;10.33;8.97;;;;;;;18.70;100.00;94434.22;5055384;28;20443;-79
2023/06/10 02:44:42;;;;;;;10.70;9.60;;;;;;;18.63;100.00;94439.47;5055424;28;20476;-79
2023/06/10 02:47:10;;;;;;;9.90;9.03;;;;;;;18.66;100.00;94440.94;5054990;28;20455;-78
2023/06/10 02:49:37;;;;;;;14.33;9.27;;;;;;;18.65;100.00;94437.44;5055179;28;20450;-79
2023/06/10 02:52:04;;;;;;;9.97;8.97;;;;;;;18.69;100.00;94443.19;5054842;28;20447;-79
2023/06/10 02:54:30;;;;;;;20.93;11.20;;;;;;;18.64;100.00;94427.00;5055344;28;20452;-79
2023/06/10 02:56:57;;;;;;;11.63;10.43;;;;;;;18.66;100.00;94428.47;5020104;28;20512;-79
2023/06/10 02:59:24;;;;;;;14.77;10.80;;;;;;;18.70;100.00;94434.22;5054869;28;20951;-79
2023/06/10 03:01:51;;;;;;;17.37;11.93;;;;;;;18.72;100.00;94440.16;5054692;28;20510;-79
2023/06/10 03:04:20;;;;;;;13.23;11.50;;;;;;;18.72;100.00;94433.00;5054931;28;20447;-79
2023/06/10 03:06:47;;;;;;;16.27;11.30;;;;;;;18.76;100.00;94434.25;5054646;28;20459;-79
2023/06/10 03:09:14;;;;;;;11.93;10.10;;;;;;;18.79;100.00;94433.91;5054871;28;20504;-79
2023/06/10 03:11:41;;;;;;;16.63;10.37;;;;;;;18.80;100.00;94440.88;5055057;28;20521;-79
2023/06/10 03:14:08;;;;;;;12.20;10.50;;;;;;;18.78;100.00;94434.91;5054387;28;20511;-79
2023/06/10 03:16:34;;;;;;;15.87;10.37;;;;;;;18.76;100.00;94434.25;5054897;28;20458;-79
2023/06/10 03:19:01;;;;;;;12.00;9.50;;;;;;;18.71;100.00;94435.84;5054308;28;20527;-79
2023/06/10 03:21:29;;;;;;;13.90;9.70;;;;;;;18.68;100.00;94434.41;5054461;28;20998;-79
2023/06/10 03:23:56;;;;;;;13.90;10.50;;;;;;;18.72;100.00;94437.50;5054380;28;20439;-79
2023/06/10 03:26:23;;;;;;;13.27;9.83;;;;;;;18.71;100.00;94442.00;5054199;28;20580;-79
2023/06/10 03:28:50;;;;;;;12.73;10.90;;;;;;;18.75;100.00;94442.44;5054261;28;20446;-79
2023/06/10 03:31:17;;;;;;;11.50;9.53;;;;;;;18.78;100.00;94450.03;5054347;28;20450;-79
2023/06/10 03:33:44;;;;;;;15.67;10.80;;;;;;;18.79;100.00;94454.31;5054145;28;20486;-79
2023/06/10 03:36:11;;;;;;;11.33;9.90;;;;;;;18.82;100.00;94448.66;5054233;28;20462;-79
2023/06/10 03:38:39;;;;;;;12.83;10.40;;;;;;;18.81;100.00;94449.66;5054624;28;20461;-79
2023/06/10 03:41:06;;;;;;;13.77;10.30;;;;;;;18.85;100.00;94458.91;5054215;28;20535;-79
2023/06/10 03:43:32;;;;;;;12.10;10.07;;;;;;;18.85;100.00;94464.22;5018958;28;20984;-79
2023/06/10 03:45:59;;;;;;;13.17;9.90;;;;;;;18.90;100.00;94458.31;5054336;28;20448;-79
2023/06/10 03:48:26;;;;;;;10.50;9.57;;;;;;;18.91;100.00;94462.63;5054445;28;20450;-79
2023/06/10 03:50:53;;;;;;;12.80;9.83;;;;;;;18.99;100.00;94470.47;5054348;28;20454;-79
2023/06/10 03:53:19;;;;;;;10.67;9.57;;;;;;;18.99;100.00;94468.63;5054325;28;20851;-79
2023/06/10 03:55:48;;;;;;;10.63;9.47;;;;;;;18.98;100.00;94474.13;5054431;28;20439;-79
2023/06/10 03:58:14;;;;;;;14.50;11.83;;;;;;;18.97;100.00;94468.00;5053976;28;20446;-79
2023/06/10 04:00:42;;;;;;;17.40;12.00;;;;;;;18.88;100.00;94471.81;5053971;28;20576;-79
2023/06/10 04:03:14;;;;;;;15.50;11.70;;;;;;;18.72;100.00;94477.38;5019108;28;20874;-79
2023/06/10 04:05:42;;;;;;;16.63;12.37;;;;;;;18.14;100.00;94472.03;5037626;28;20519;-79
2023/06/10 04:08:09;;;;;;;14.37;11.60;;;;;;;17.89;100.00;94476.00;5053355;28;20868;-79
2023/06/10 04:10:36;;;;;;;15.50;12.77;;;;;;;17.69;100.00;94474.94;5035491;28;20942;-79
2023/06/10 04:13:04;;;;;;;15.40;11.83;;;;;;;17.64;100.00;94475.44;5053689;28;20454;-79
2023/06/10 04:15:33;;;;;;;15.20;12.43;;;;;;;17.46;100.00;94470.50;5053748;28;20450;-79
2023/06/10 04:18:00;;;;;;;14.67;11.30;;;;;;;17.52;100.00;94482.19;5052809;28;20438;-79
2023/06/10 04:20:28;;;;;;;14.93;12.97;;;;;;;17.49;100.00;94480.75;5053210;28;20481;-79
2023/06/10 04:22:54;;;;;;;17.43;13.13;;;;;;;17.60;100.00;94482.09;5051757;28;20457;-79
2023/06/10 04:25:21;;;;;;;14.33;12.80;;;;;;;17.70;100.00;94485.38;5053825;28;20450;-79
2023/06/10 04:27:48;;;;;;;15.13;10.93;;;;;;;17.74;100.00;94491.94;5053690;28;20453;-78
2023/06/10 04:30:16;;;;;;;12.13;10.97;;;;;;;18.25;100.00;94484.84;5053064;28;20536;-78
2023/06/10 04:32:43;;;;;;;10.50;9.40;;;;;;;18.91;100.00;94484.72;5053065;28;20449;-79
2023/06/10 04:35:12;;;;;;;9.90;8.60;;;;;;;19.32;100.00;94486.69;5052651;28;20435;-81
2023/06/10 04:37:39;;;;;;;13.20;9.70;;;;;;;19.64;100.00;94488.78;5053779;28;20462;-82
2023/06/10 04:40:07;;;;;;;10.13;9.00;;;;;;;19.94;100.00;94478.69;5053494;28;20567;-82
2023/06/10 04:42:34;;;;;;;11.07;9.33;;;;;;;20.13;100.00;94490.47;5051328;28;20453;-82
2023/06/10 04:45:01;;;;;;;10.60;8.63;;;;;;;20.17;100.00;94491.72;5053496;28;20476;-82
2023/06/10 04:47:33;;;;;;;10.93;9.40;;;;;;;20.42;100.00;94492.06;5053462;28;20876;-82
2023/06/10 04:49:59;;;;;;;10.43;9.53;;;;;;;20.67;100.00;94492.34;5053372;28;20528;-83
2023/06/10 04:52:26;;;;;;;9.20;8.37;;;;;;;20.87;99.53;94493.22;5053619;28;20450;-83
2023/06/10 04:54:53;;;;;;;9.70;8.87;;;;;;;21.08;98.53;94494.03;5053327;28;20496;-83
2023/06/10 04:57:20;;;;;;;11.73;8.90;;;;;;;21.16;97.74;94485.84;5053042;28;20434;-82
2023/06/10 04:59:47;;;;;;;11.40;9.10;;;;;;;21.28;97.55;94484.22;5053055;28;20452;-82
2023/06/10 05:02:13;;;;;;;10.87;9.40;;;;;;;21.42;96.83;94485.88;5053244;28;20436;-83
2023/06/10 05:04:41;;;;;;;12.93;10.07;;;;;;;21.60;95.56;94490.56;5052722;28;20861;-82
2023/06/10 05:07:08;;;;;;;12.27;9.20;;;;;;;21.75;95.21;94491.19;5034678;28;20450;-82
2023/06/10 05:09:35;;;;;;;11.70;10.60;;;;;;;21.82;93.38;94488.50;5050931;28;20478;-79
2023/06/10 05:12:02;;;;;;;10.50;9.40;;;;;;;21.70;92.72;94487.50;5053076;28;21007;-80
2023/06/10 05:14:29;;;;;;;12.27;11.03;;;;;;;21.51;92.97;94484.63;5053282;28;20451;-79
2023/06/10 05:16:56;;;;;;;13.03;11.83;;;;;;;21.33;95.03;94487.09;5052778;28;20454;-79
2023/06/10 05:19:22;;;;;;;20.60;13.03;;;;;;;21.15;96.23;94473.53;5053086;28;20458;-79
2023/06/10 05:21:50;;;;;;;10.83;9.90;;;;;;;21.03;98.05;94476.78;5052858;28;20482;-79
2023/06/10 05:24:17;;;;;;;12.97;11.63;;;;;;;20.89;99.30;94469.81;5052886;28;20499;-80
2023/06/10 05:26:44;;;;;;;17.23;11.83;;;;;;;20.78;99.81;94465.06;5052940;28;20468;-79
2023/06/10 05:29:11;;;;;;;20.20;15.40;;;;;;;20.73;100.00;94471.00;5052888;28;20461;-80
2023/06/10 05:31:37;;;;;;;13.00;11.00;;;;;;;20.68;100.00;94465.47;5053156;28;20521;-80
2023/06/10 05:34:05;;;;;;;12.13;10.37;;;;;;;20.66;100.00;94469.38;5052922;28;20841;-80
2023/06/10 05:36:32;;;;;;;13.80;9.77;;;;;;;20.61;100.00;94471.81;5052781;28;20459;-80
2023/06/10 05:39:00;;;;;;;12.37;10.30;;;;;;;20.62;100.00;94468.94;5052476;28;20451;-79
2023/06/10 05:41:27;;;;;;;16.07;9.20;;;;;;;20.71;100.00;94473.06;5052961;28;20491;-80
2023/06/10 05:43:53;;;;;;;17.43;8.70;;;;;;;20.81;100.00;94472.66;5052826;28;20473;-81
2023/06/10 05:46:21;;;;;;;13.67;9.80;;;;;;;20.93;100.00;94464.91;5053936;28;20445;-80
2023/06/10 05:48:47;;;;;;;17.50;9.40;;;;;;;20.95;100.00;94473.50;5056532;28;20449;-80
2023/06/10 05:51:14;;;;;;;8.73;7.90;;;;;;;20.96;100.00;94473.31;5046345;28;20799;-80
2023/06/10 05:53:41;;;;;;;13.13;9.60;;;;;;;20.98;100.00;94492.59;5052145;28;20561;-79
2023/06/10 05:56:09;;;;;;;9.57;8.70;;;;;;;20.99;100.00;94478.22;5056230;28;20439;-79
2023/06/10 05:58:36;;;;;;;10.43;9.33;;;;;;;21.02;100.00;94475.16;5056518;28;20451;-80
2023/06/10 06:01:03;;;;;;;10.40;9.40;;;;;;;21.05;100.00;94484.59;5056103;28;20544;-79
2023/06/10 06:03:29;;;;;;;11.27;10.00;;;;;;;21.08;100.00;94484.19;5055863;28;20450;-79
2023/06/10 06:05:56;;;;;;;12.53;9.10;;;;;;;21.14;100.00;94487.91;5055955;28;20434;-79
2023/06/10 06:08:23;;;;;;;15.40;9.87;;;;;;;21.19;100.00;94482.78;5047908;28;20469;-80
2023/06/10 06:10:51;;;;;;;9.47;8.57;;;;;;;21.26;100.00;94488.94;5055717;28;20447;-79
2023/06/10 06:13:19;;;;;;;11.23;10.13;;;;;;;21.35;100.00;94493.03;5055770;28;20448;-79
2023/06/10 06:15:46;;;;;;;15.07;9.10;;;;;;;21.39;100.00;94493.47;5055513;28;20449;-79
2023/06/10 06:18:12;;;;;;;11.00;9.30;;;;;;;21.40;100.00;94495.13;5050524;28;20443;-79
2023/06/10 06:20:39;;;;;;;18.47;10.67;;;;;;;21.43;100.00;94497.38;5056024;28;20483;-79
2023/06/10 06:23:08;;;;;;;13.03;9.60;;;;;;;21.44;100.00;94491.00;5055879;28;20447;-79
2023/06/10 06:25:35;;;;;;;12.80;9.33;;;;;;;21.46;100.00;94492.44;5036740;28;20490;-79
2023/06/10 06:28:02;;;;;;;12.37;10.87;;;;;;;21.39;100.00;94488.94;5054500;28;20454;-79
2023/06/10 06:30:31;;;;;;;11.33;10.33;;;;;;;21.40;100.00;94481.78;5054693;28;20463;-79
2023/06/10 06:32:57;;;;;;;16.43;11.30;;;;;;;21.37;100.00;94482.16;5054729;28;20441;-79
2023/06/10 06:35:24;;;;;;;13.97;11.60;;;;;;;21.38;100.00;94484.63;5019588;28;20450;-79
2023/06/10 06:37:51;;;;;;;12.03;10.83;;;;;;;21.36;100.00;94489.34;5054455;28;20941;-79
2023/06/10 06:40:18;;;;;;;16.20;11.07;;;;;;;21.28;99.45;94486.91;5054189;28;20794;-79
2023/06/10 06:42:45;;;;;;;12.17;10.93;;;;;;;21.33;100.00;94476.41;5054362;28;20497;-79
2023/06/10 06:45:12;;;;;;;23.00;14.13;;;;;;;21.24;100.00;94483.00;5054684;28;20483;-79
2023/06/10 06:47:40;;;;;;;20.63;13.03;;;;;;;21.28;100.00;94485.06;5035551;28;20531;-79
2023/06/10 06:50:07;;;;;;;24.43;13.87;;;;;;;21.37;100.00;94482.16;5018986;28;20858;-79
2023/06/10 06:52:34;;;;;;;15.90;14.00;;;;;;;21.38;100.00;94471.28;5054231;28;20489;-79
2023/06/10 06:55:01;;;;;;;16.97;13.70;;;;;;;21.35;100.00;94466.34;5054095;28;20464;-79
2023/06/10 06:57:28;;;;;;;17.53;14.10;;;;;;;21.44;100.00;94478.47;5053767;28;20451;-79
2023/06/10 06:59:54;;;;;;;19.70;15.53;;;;;;;21.53;100.00;94481.75;5053824;28;20452;-79
2023/06/10 07:02:21;;;;;;;20.57;15.03;;;;;;;21.55;100.00;94475.19;5054164;28;20491;-79
2023/06/10 07:04:50;;;;;;;17.57;14.90;;;;;;;21.58;100.00;94479.28;5053912;28;20490;-79
2023/06/10 07:07:17;;;;;;;20.43;18.40;;;;;;;21.55;100.00;94475.19;5054060;28;20495;-79
2023/06/10 07:09:43;;;;;;;17.47;15.77;;;;;;;21.52;100.00;94478.25;5053788;28;20448;-79
2023/06/10 07:12:11;;;;;;;20.37;18.27;;;;;;;21.53;100.00;94477.22;5053723;28;20461;-79
2023/06/10 07:14:37;;;;;;;21.47;17.00;;;;;;;21.46;100.00;94470.28;5035394;28;20505;-79
2023/06/10 07:17:04;;;;;;;20.50;16.77;;;;;;;21.50;100.00;94471.50;5053846;28;20452;-79
2023/06/10 07:19:31;;;;;;;20.60;17.90;;;;;;;21.59;100.00;94468.38;5018651;28;20509;-79
2023/06/10 07:21:59;;;;;;;23.07;17.07;;;;;;;21.63;100.00;94464.28;5054065;28;20549;-79
2023/06/10 07:24:26;;;;;;;17.73;15.17;;;;;;;21.71;100.00;94462.44;5053554;28;21053;-79
2023/06/10 07:26:53;;;;;;;17.13;15.33;;;;;;;21.92;100.00;94470.16;5053496;28;21216;-79
2023/06/10 07:29:20;;;;;;;17.50;12.70;;;;;;;22.51;98.26;94469.13;5053812;28;20446;-79
2023/06/10 07:31:46;;;;;;;18.83;11.97;;;;;;;23.00;94.97;94473.00;5034769;28;20979;-79
2023/06/10 07:34:13;;;;;;;15.43;11.83;;;;;;;23.36;91.69;94469.63;5018613;28;20485;-79
2023/06/10 07:36:40;;;;;;;17.37;14.73;;;;;;;23.58;88.85;94470.09;5053338;28;21003;-79
2023/06/10 07:39:08;;;;;;;13.80;10.73;;;;;;;23.65;85.47;94465.47;5053372;28;20444;-79
2023/06/10 07:41:35;;;;;;;19.20;9.87;;;;;;;23.78;84.77;94471.53;5017948;28;21075;-79
2023/06/10 07:44:02;;;;;;;10.83;9.90;;;;;;;24.15;84.26;94471.56;5053065;28;21001;-79
2023/06/10 07:46:29;;;;;;;14.63;11.10;;;;;;;24.73;83.20;94480.97;5053160;28;20441;-79
2023/06/10 07:48:56;;;;;;;13.40;12.10;;;;;;;25.13;80.36;94474.00;5034396;28;21001;-79
2023/06/10 07:51:23;;;;;;;16.63;10.53;;;;;;;25.46;79.63;94476.19;5053275;28;20852;-80
2023/06/10 07:53:50;;;;;;;14.30;12.80;;;;;;;25.76;75.90;94484.19;5053034;28;20450;-79
2023/06/10 07:56:18;;;;;;;18.97;10.40;;;;;;;25.99;73.52;94477.16;5053070;28;20536;-79
2023/06/10 07:58:44;;;;;;;9.93;8.67;;;;;;;26.04;73.07;94485.34;5053254;28;20492;-79
2023/06/10 08:01:11;;;;;;;12.20;9.10;;;;;;;25.94;71.20;94483.25;5052851;28;20901;-79
2023/06/10 08:03:38;;;;;;;15.37;8.80;;;;;;;25.68;72.85;94471.09;5052710;28;20442;-79
2023/06/10 08:06:05;;;;;;;11.60;8.87;;;;;;;25.55;74.08;94476.66;5052748;28;20438;-79
2023/06/10 08:08:32;;;;;;;11.70;8.73;;;;;;;25.60;75.36;94474.91;5053016;28;20536;-80
2023/06/10 08:10:59;;;;;;;13.07;10.60;;;;;;;25.82;73.27;94480.56;5052425;28;20442;-79
2023/06/10 08:13:27;;;;;;;14.53;9.10;;;;;;;25.96;72.74;94477.63;5052869;28;20446;-80
2023/06/10 08:15:55;;;;;;;15.63;9.20;;;;;;;25.96;72.89;94472.25;5052653;28;20487;-79
2023/06/10 08:18:22;;;;;;;10.37;9.37;;;;;;;25.99;71.30;94477.16;5052549;28;20441;-79
2023/06/10 08:20:49;;;;;;;13.30;10.73;;;;;;;26.21;74.40;94468.25;5052581;28;20857;-79
2023/06/10 08:23:16;;;;;;;14.60;11.90;;;;;;;26.40;71.78;94463.56;5052492;28;20994;-79
2023/06/10 08:25:42;;;;;;;15.47;10.90;;;;;;;26.41;71.73;94465.19;5052523;28;20449;-80
2023/06/10 08:28:09;;;;;;;12.00;10.70;;;;;;;26.37;70.46;94458.66;5052487;28;20990;-80
2023/06/10 08:30:37;;;;;;;15.00;11.43;;;;;;;26.25;69.13;94455.13;5052426;28;20438;-79
2023/06/10 08:33:04;;;;;;;9.53;8.63;;;;;;;26.59;70.91;94456.09;5017406;28;20442;-79
2023/06/10 08:35:31;;;;;;;11.23;8.47;;;;;;;26.80;66.89;94452.75;5052296;28;20933;-79
2023/06/10 08:37:58;;;;;;;11.20;7.30;;;;;;;26.96;64.85;94453.88;5052551;28;20454;-79
2023/06/10 08:40:25;;;;;;;12.87;7.17;;;;;;;27.07;60.34;94431.47;5052558;28;20446;-80
2023/06/10 08:43:01;;;;;;;8.03;7.23;;;;;;;26.98;63.43;94430.19;5052003;28;20485;-78
2023/06/10 08:45:31;;;;;;;9.00;7.27;;;;;;;26.93;63.92;94430.13;5052256;28;20551;-80
2023/06/10 08:48:01;;;;;;;6.37;5.77;;;;;;;26.90;61.47;94433.28;5051975;28;20876;-79
2023/06/10 08:50:30;;;;;;;7.40;6.50;;;;;;;26.94;62.41;94431.75;5052154;28;20445;-79
2023/06/10 08:52:59;;;;;;;7.13;6.47;;;;;;;26.81;60.10;94427.47;5052117;28;20438;-79
2023/06/10 08:55:30;;;;;;;5.40;4.30;;;;;;;26.50;58.23;94426.06;5052160;28;20528;-79
2023/06/10 08:57:57;;;;;;;5.87;5.37;;;;;;;26.34;56.77;94424.16;5052397;28;20445;-79
2023/06/10 09:00:24;;;;;;;7.27;6.03;;;;;;;26.25;58.32;94417.47;5051952;28;20503;-80
2023/06/10 09:02:51;;;;;;;4.00;3.60;;;;;;;26.39;55.60;94412.69;5052134;28;20481;-79
2023/06/10 09:05:20;;;;;;;4.27;3.87;;;;;;;26.29;55.96;94413.25;5052026;28;20442;-79
2023/06/10 09:07:49;;;;;;;4.97;4.47;;;;;;;26.39;55.96;94408.13;5052084;28;20488;-79
2023/06/10 09:10:16;;;;;;;4.57;4.17;;;;;;;26.60;56.40;94406.63;5052296;28;20446;-79
2023/06/10 09:12:43;;;;;;;4.93;4.03;;;;;;;26.69;55.39;94398.97;5052385;28;20456;-79
2023/06/10 09:15:12;;;;;;;6.77;4.10;;;;;;;26.80;55.23;94404.28;5052113;28;20499;-79
2023/06/10 09:17:40;;;;;;;3.77;3.40;;;;;;;26.83;53.81;94397.59;5051994;28;20449;-79
2023/06/10 09:20:08;;;;;;;4.13;3.73;;;;;;;26.96;56.36;94402.69;5052214;28;20813;-79
2023/06/10 09:22:36;;;;;;;4.20;3.43;;;;;;;27.11;54.34;94402.16;5055157;28;20530;-79
2023/06/10 09:25:05;;;;;;;5.73;4.00;;;;;;;26.99;55.26;94390.66;5056096;28;20437;-79
2023/06/10 09:27:32;;;;;;;5.80;5.03;;;;;;;26.58;55.83;94394.44;5056041;28;20442;-79
2023/06/10 09:29:59;;;;;;;5.07;4.10;;;;;;;26.70;55.14;94390.66;5056045;28;20477;-79
2023/06/10 09:32:27;;;;;;;5.10;4.57;;;;;;;26.50;56.39;94387.59;5056012;28;20447;-79
2023/06/10 09:34:54;;;;;;;6.03;4.33;;;;;;;26.32;55.47;94390.44;5055696;28;20504;-79
2023/06/10 09:37:21;;;;;;;7.10;3.90;;;;;;;26.54;56.28;94392.25;5054394;28;20453;-79
2023/06/10 09:40:02;;;;;;;4.50;3.20;;;;;;;26.25;53.73;94390.56;5056518;28;20449;-79
2023/06/10 09:42:34;;;;;;;9.17;3.33;;;;;;;26.24;51.67;94379.00;5021546;28;20572;-80
2023/06/10 09:45:01;;;;;;;2.80;2.60;;;;;;;26.15;53.22;94385.81;5056964;28;20552;-79
2023/06/10 09:47:27;;;;;;;4.87;4.20;;;;;;;25.85;53.21;94387.88;5056508;28;20942;-80
2023/06/10 09:49:54;;;;;;;4.67;3.73;;;;;;;25.91;53.10;94385.03;5056521;28;20866;-79
2023/06/10 09:52:25;;;;;;;7.13;3.80;;;;;;;25.92;54.78;94380.47;5056781;28;20444;-80
2023/06/10 09:54:52;;;;;;;5.20;4.63;;;;;;;26.02;53.18;94380.72;5056660;28;20506;-78
2023/06/10 09:57:22;;;;;;;4.30;4.00;;;;;;;25.94;56.09;94387.25;5056038;28;20485;-79
2023/06/10 09:59:49;;;;;;;7.13;4.77;;;;;;;26.02;55.22;94377.19;5056027;28;20446;-78
2023/06/10 10:02:16;;;;;;;4.87;4.40;;;;;;;26.04;55.82;94372.41;5056205;28;20546;-79
2023/06/10 10:04:43;;;;;;;4.50;4.10;;;;;;;25.54;56.38;94373.75;5056420;28;20473;-78
2023/06/10 10:07:10;;;;;;;4.70;4.30;;;;;;;25.54;56.39;94378.31;5056361;28;20838;-79
2023/06/10 10:09:37;;;;;;;4.87;4.47;;;;;;;25.25;55.80;94375.50;5055970;28;20511;-79
2023/06/10 10:12:11;;;;;;;4.60;4.07;;;;;;;25.48;56.26;94357.75;5055939;28;20449;-79
2023/06/10 10:14:39;;;;;;;5.57;3.47;;;;;;;25.48;58.40;94347.81;5055682;28;20476;-80
2023/06/10 10:17:11;;;;;;;6.23;4.27;;;;;;;25.53;58.42;94349.78;5055738;28;20450;-81
2023/06/10 10:19:44;;;;;;;4.00;3.70;;;;;;;25.58;58.73;94344.53;5055486;28;20529;-79
2023/06/10 10:22:16;;;;;;;3.90;3.60;;;;;;;25.73;57.80;94341.38;5037524;28;20489;-80
2023/06/10 10:24:48;;;;;;;5.50;3.97;;;;;;;25.79;57.32;94343.13;5055947;28;20837;-80
2023/06/10 10:27:19;;;;;;;4.77;4.37;;;;;;;25.92;56.83;94354.41;5055986;28;20484;-80
2023/06/10 10:29:53;;;;;;;5.03;4.20;;;;;;;26.09;55.52;94334.84;5055853;28;20450;-80
2023/06/10 10:32:22;;;;;;;8.40;4.47;;;;;;;26.19;55.05;94341.25;5055160;28;20438;-80
2023/06/10 10:34:52;;;;;;;4.70;4.30;;;;;;;26.28;55.58;94340.84;5055511;28;20990;-80
2023/06/10 10:37:18;;;;;;;6.27;3.93;;;;;;;26.34;55.38;94339.94;5055999;28;20453;-81
2023/06/10 10:39:46;;;;;;;4.90;3.80;;;;;;;26.30;55.53;94336.03;5055443;28;20442;-79
2023/06/10 10:42:14;;;;;;;5.37;4.13;;;;;;;26.44;52.45;94340.13;5055320;28;20539;-79
2023/06/10 10:44:42;;;;;;;6.70;3.13;;;;;;;26.50;52.46;94334.56;5055367;28;20547;-80
2023/06/10 10:47:12;;;;;;;5.07;3.93;;;;;;;26.70;55.03;94328.75;5055323;28;20449;-79
2023/06/10 10:49:40;;;;;;;3.87;3.57;;;;;;;26.79;54.49;94321.06;5055330;28;20437;-79
2023/06/10 10:52:12;;;;;;;5.80;4.63;;;;;;;26.94;53.49;94323.22;5055592;28;20518;-79
2023/06/10 10:54:45;;;;;;;4.23;3.93;;;;;;;26.89;52.26;94320.41;5055536;28;20445;-79
2023/06/10 10:57:16;;;;;;;4.33;3.93;;;;;;;26.95;52.21;94320.28;5055511;28;20948;-79
2023/06/10 10:59:52;;;;;;;6.47;4.17;;;;;;;26.79;53.15;94321.06;5055454;28;20445;-78
2023/06/10 11:02:35;;;;;;;4.83;4.40;;;;;;;26.53;52.41;94317.94;5055248;28;20585;-79
2023/06/10 11:05:02;;;;;;;3.90;3.60;;;;;;;26.37;54.20;94318.75;5055081;28;20438;-79
2023/06/10 11:07:31;;;;;;;5.30;3.40;;;;;;;26.33;52.05;94312.19;5055448;28;20450;-79
2023/06/10 11:09:59;;;;;;;5.23;3.90;;;;;;;26.24;54.43;94308.22;5055333;28;20449;-79
2023/06/10 11:12:26;;;;;;;4.23;3.80;;;;;;;26.23;54.95;94303.91;5054709;28;20532;-79
2023/06/10 11:14:56;;;;;;;4.77;4.37;;;;;;;26.23;55.05;94293.16;5052978;28;20442;-79
2023/06/10 11:17:25;;;;;;;4.67;4.37;;;;;;;26.38;54.61;94298.03;5054829;28;20531;-79
2023/06/10 11:19:52;;;;;;;7.43;4.00;;;;;;;26.41;54.88;94292.97;5054623;28;20464;-79
2023/06/10 11:22:18;;;;;;;4.20;3.80;;;;;;;26.58;54.16;94284.09;5054507;28;20543;-79
2023/06/10 11:24:49;;;;;;;4.60;4.20;;;;;;;26.66;54.66;94287.22;5054434;28;20450;-79